Flight Track Log - Related Links

Times and Time Zones

All times are in EDT time to prevent confusion due to time zone crossing. See the USC105 flight status page for this flight to view local times or setup timezone preferences in your user account.


Time Position Orientation Groundspeed Altitude Reporting Facility
EDT Latitude Longitude Course Direction KTS MPH feet Rate Location/Type
Thu 07:34:59 AM 42.2183 -83.5639 160° South 99 114 2,100  Level FAA TRACON SMA TRACON (SMA)
Thu 07:35:20 AM 42.2147 -83.5728 241° Southwest 83 96 2,400 750 Climbing FAA TRACON SMA TRACON (SMA)
Thu 07:35:39 AM 42.2103 -83.5817 236° Southwest 90 104 2,600 750 Climbing FAA TRACON SMA TRACON (SMA)
Thu 07:36:00 AM 42.2044 -83.5922 233° Southwest 91 105 2,900 878 Climbing FAA TRACON SMA TRACON (SMA)
Thu 07:36:20 AM 42.1994 -83.6003 230° Southwest 91 105 3,200 900 Climbing FAA TRACON SMA TRACON (SMA)
Thu 07:36:40 AM 42.1944 -83.6075 227° Southwest 87 100 3,500 900 Climbing FAA TRACON SMA TRACON (SMA)
Thu 07:37:00 AM 42.1881 -83.6156 223° Southwest 83 96 3,800 600 Climbing FAA TRACON SMA TRACON (SMA)
Thu 07:37:20 AM 42.1828 -83.6231 226° Southwest 91 105 3,900 293 Climbing FAA TRACON SMA TRACON (SMA)
Thu 07:37:41 AM 42.1767 -83.6322 228° Southwest 107 123 4,000 146 Climbing FAA TRACON SMA TRACON (SMA)
Thu 07:38:01 AM 42.1692 -83.6433 228° Southwest 106 122 4,000  Level FAA TRACON SMA TRACON (SMA)
Thu 07:38:21 AM 42.1628 -83.6519 225° Southwest 105 121 4,000  Level FAA TRACON SMA TRACON (SMA)
Thu 07:38:41 AM 42.1564 -83.6603 224° Southwest 103 119 4,000  Level FAA TRACON SMA TRACON (SMA)
Thu 07:39:01 AM 42.1453 -83.6608 182° South 125 144 4,000  Level FAA TRACON SMA TRACON (SMA)
Thu 07:39:21 AM 42.1350 -83.6547 156° South 130 150 4,000  Level FAA TRACON SMA TRACON (SMA)
Thu 07:39:41 AM 42.1233 -83.6472 155° Southeast 132 152 4,000  Level FAA TRACON SMA TRACON (SMA)
Thu 07:40:00 AM 41.9829 -83.4415 160° South  Level FlightAware Approximate
Thu 07:40:00 AM 42.1122 -83.6397 153° Southeast 131 151 4,000  Level FAA TRACON SMA TRACON (SMA)
Thu 07:40:20 AM 42.1022 -83.6325 152° Southeast 131 151 4,000  Level FAA TRACON SMA TRACON (SMA)
Thu 07:41:00 AM 42.0800 -83.6167 152° Southeast 132 152 4,000  Level FAA TRACON SMA TRACON (SMA)
Thu 07:41:20 AM 42.0700 -83.6097 153° Southeast 131 151 4,000  Level FAA TRACON SMA TRACON (SMA)
Thu 07:41:40 AM 42.0597 -83.6025 152° Southeast 132 152 4,000  Level FAA TRACON SMA TRACON (SMA)
Thu 07:42:00 AM 42.0467 -83.5931 152° Southeast 136 157 4,000  Level FAA TRACON SMA TRACON (SMA)
Thu 07:42:20 AM 42.0356 -83.5858 154° Southeast 143 165 4,000  Level FAA TRACON SMA TRACON (SMA)
Thu 07:42:40 AM 42.0217 -83.5778 157° South 152 175 4,000  Level FAA TRACON SMA TRACON (SMA)
Thu 07:43:00 AM 42.0100 -83.5692 151° Southeast 163 188 4,000  Level FAA TRACON SMA TRACON (SMA)
Thu 07:43:20 AM 41.9967 -83.5561 144° Southeast 167 192 4,000  Level FAA TRACON SMA TRACON (SMA)
Thu 07:43:40 AM 41.9833 -83.5469 153° Southeast 158 182 4,000  Level FAA TRACON SMA TRACON (SMA)
Thu 07:44:00 AM 41.9692 -83.5403 161° South 156 180 4,000  Level FAA TRACON SMA TRACON (SMA)
Thu 07:44:20 AM 41.9544 -83.5314 156° South 160 184 4,000  Level FAA TRACON SMA TRACON (SMA)
Thu 07:44:40 AM 41.9425 -83.5233 153° Southeast 163 188 4,000  Level FAA TRACON SMA TRACON (SMA)
Thu 07:45:00 AM 41.9281 -83.5131 152° Southeast 163 188 4,000  Level FAA TRACON SMA TRACON (SMA)
Thu 07:45:20 AM 41.9164 -83.5050 153° Southeast 162 186 4,000  Level FAA TRACON SMA TRACON (SMA)
Thu 07:45:40 AM 41.9014 -83.4950 154° Southeast 162 186 4,000  Level FAA TRACON SMA TRACON (SMA)
Thu 07:46:00 AM 41.8894 -83.4869 153° Southeast 161 185 4,000  Level FAA TRACON SMA TRACON (SMA)
Thu 07:46:20 AM 41.8756 -83.4778 154° Southeast 160 184 4,000  Level FAA TRACON SMA TRACON (SMA)
Thu 07:46:40 AM 41.8631 -83.4689 152° Southeast 161 185 4,000  Level FAA TRACON SMA TRACON (SMA)
Thu 07:47:00 AM 41.8475 -83.4589 154° Southeast 161 185 4,000  Level FAA TRACON SMA TRACON (SMA)
Thu 07:47:20 AM 41.8353 -83.4508 154° Southeast 160 184 4,000 600 Level FAA TRACON SMA TRACON (SMA)
Thu 07:47:40 AM 41.8242 -83.4425 151° Southeast 154 177 4,400 1,231 Climbing FAA TRACON SMA TRACON (SMA)
Thu 07:47:59 AM 41.8131 -83.4336 149° Southeast 118 136 4,800 1,050 Climbing FAA TRACON SMA TRACON (SMA)
Thu 07:48:20 AM 41.8042 -83.4283 156° South 118 136 5,100 750 Climbing FAA TRACON SMA TRACON (SMA)
Thu 07:48:39 AM 41.7950 -83.4228 156° South 129 148 5,300 600 Climbing FAA TRACON SMA TRACON (SMA)
Thu 07:49:00 AM 41.7831 -83.4153 155° Southeast 124 143 5,500 585 Climbing FAA TRACON SMA TRACON (SMA)
Thu 07:49:20 AM 41.7733 -83.4086 153° Southeast 127 146 5,700 615 Climbing FAA TRACON SMA TRACON (SMA)
Thu 07:49:39 AM 41.7631 -83.4014 152° Southeast 130 150 5,900 750 Climbing FAA TRACON SMA TRACON (SMA)
Thu 07:50:00 AM 41.7506 -83.3950 159° South 122 140 6,200 750 Climbing FAA TRACON SMA TRACON (SMA)
Thu 07:50:19 AM 41.7403 -83.3911 164° South 124 143 6,400 750 Climbing FAA TRACON SMA TRACON (SMA)
Thu 07:50:40 AM 41.7303 -83.3886 169° South 121 139 6,700 732 Climbing FAA TRACON SMA TRACON (SMA)
Thu 07:51:00 AM 41.7172 -83.3872 175° South 121 139 6,900 419 Climbing FAA TRACON SMA TRACON (SMA)
Thu 07:51:23 AM 41.7061 -83.3858 175° South 126 145 7,000 143 Climbing FAA TRACON SMA TRACON (SMA)
Thu 07:51:42 AM 41.6906 -83.3819 169° South 146 168 7,000  Level FAA TRACON SMA TRACON (SMA)
Thu 07:51:59 AM 41.6803 -83.3783 165° South 157 181 7,000  Level FAA TRACON SMA TRACON (SMA)
Thu 07:52:20 AM 41.6639 -83.3736 168° South 154 177 7,000  Level FAA TRACON SMA TRACON (SMA)
Thu 07:52:39 AM 41.6508 -83.3700 168° South 157 181 7,000  Level FAA TRACON SMA TRACON (SMA)
Thu 07:53:00 AM 41.6344 -83.3672 173° South 155 178 7,000  Level FAA TRACON SMA TRACON (SMA)
Thu 07:53:19 AM 41.6214 -83.3633 167° South 156 180 7,000  Level FAA TRACON SMA TRACON (SMA)
Thu 07:53:40 AM 41.6081 -83.3594 168° South 157 181 7,000  Level FAA TRACON SMA TRACON (SMA)
Thu 07:54:00 AM 41.5914 -83.3558 171° South 157 181 7,000  Level FAA TRACON SMA TRACON (SMA)
Thu 07:54:19 AM 41.5778 -83.3531 171° South 158 182 7,000  Level FAA TRACON SMA TRACON (SMA)
Thu 07:54:40 AM 41.5647 -83.3494 168° South 158 182 7,000  Level FAA TRACON SMA TRACON (SMA)
Thu 07:54:59 AM 41.5478 -83.3453 170° South 159 183 7,000  Level FAA TRACON SMA TRACON (SMA)
Thu 07:55:20 AM 41.5342 -83.3419 170° South 159 183 7,000  Level FAA TRACON SMA TRACON (SMA)
Thu 07:55:40 AM 41.5208 -83.3386 169° South 159 183 7,000  Level FAA TRACON SMA TRACON (SMA)
Thu 07:55:59 AM 41.5039 -83.3339 168° South 160 184 7,000  Level FAA TRACON SMA TRACON (SMA)
Thu 07:56:20 AM 41.4906 -83.3317 173° South 159 183 7,000  Level FAA TRACON SMA TRACON (SMA)
Thu 07:56:39 AM 41.4772 -83.3269 165° South 159 183 7,000  Level FAA TRACON SMA TRACON (SMA)
Thu 07:56:59 AM 41.4639 -83.3244 172° South 158 182 7,000  Level FAA TRACON SMA TRACON (SMA)
Thu 07:57:20 AM 41.4472 -83.3197 168° South 158 182 7,000  Level FAA TRACON SMA TRACON (SMA)
Thu 07:57:39 AM 41.4339 -83.3167 170° South 158 182 7,000  Level FAA TRACON SMA TRACON (SMA)
Thu 07:58:00 AM 41.4172 -83.3128 170° South 158 182 7,000  Level FAA TRACON SMA TRACON (SMA)
Thu 07:58:19 AM 41.4036 -83.3097 170° South 158 182 7,000  Level FAA TRACON SMA TRACON (SMA)
Thu 07:58:39 AM 41.3906 -83.3058 167° South 158 182 7,000  Level FAA TRACON SMA TRACON (SMA)
Thu 07:59:00 AM 41.3739 -83.3017 169° South 158 182 7,000  Level FAA TRACON SMA TRACON (SMA)
Thu 07:59:19 AM 41.3606 -83.2986 170° South 158 182 7,000  Level FAA TRACON SMA TRACON (SMA)
Thu 07:59:40 AM 41.3469 -83.2958 171° South 158 182 7,000  Level FAA TRACON SMA TRACON (SMA)
Thu 07:59:59 AM 41.3369 -83.2933 169° South 159 183 7,000  Level FAA TRACON SMA TRACON (SMA)
Thu 08:01:38 AM 41.2619 -83.2733 169° South 161 185 7,000  Level Indianapolis Center
Thu 08:02:39 AM 41.2183 -83.2633 170° South 160 184 7,000  Level Indianapolis Center
Thu 08:03:40 AM 41.1739 -83.2525 170° South 160 184 7,000 -49 Level Indianapolis Center
Thu 08:04:41 AM 41.1286 -83.2417 170° South 163 188 6,900 -49 Descending Indianapolis Center
Thu 08:05:42 AM 41.0831 -83.2311 170° South 165 190 6,900  Level Indianapolis Center
Thu 08:06:43 AM 41.0389 -83.2189 168° South 162 186 6,900  Level Indianapolis Center
Thu 08:07:44 AM 40.9950 -83.2086 170° South 160 184 6,900  Level Indianapolis Center
Thu 08:08:45 AM 40.9503 -83.1983 170° South 160 184 6,900  Level Indianapolis Center
Thu 08:09:46 AM 40.9056 -83.1864 169° South 162 186 6,900  Level Indianapolis Center
Thu 08:10:47 AM 40.8628 -83.1767 170° South 158 182 6,900  Level Indianapolis Center
Thu 08:11:48 AM 40.8111 -83.1636 169° South 159 183 6,900 49 Level Indianapolis Center
Thu 08:12:49 AM 40.7672 -83.1547 171° South 159 183 7,000 49 Climbing Indianapolis Center
Thu 08:13:50 AM 40.7233 -83.1439 169° South 159 183 7,000  Level Indianapolis Center
Thu 08:14:52 AM 40.6792 -83.1322 169° South 161 185 7,000  Level Indianapolis Center
Thu 08:15:53 AM 40.6350 -83.1217 170° South 161 185 7,000  Level Indianapolis Center
Thu 08:16:54 AM 40.5917 -83.1111 170° South 158 182 7,000  Level Indianapolis Center
Thu 08:17:55 AM 40.5458 -83.1000 170° South 164 189 7,000  Level Indianapolis Center
Thu 08:18:56 AM 40.5036 -83.0903 170° South 161 185 7,000 -49 Level Indianapolis Center
Thu 08:19:57 AM 40.4600 -83.0792 169° South 158 182 6,900  Descending Indianapolis Center
Thu 08:20:58 AM 40.4156 -83.0692 170° South 160 184 7,000 49 Climbing Indianapolis Center
Thu 08:21:59 AM 40.3703 -83.0586 170° South 162 186 7,000  Level Indianapolis Center
Thu 08:23:01 AM 40.3269 -83.0481 169° South 159 183 7,000  Level Indianapolis Center
Thu 08:24:02 AM 40.2828 -83.0378 170° South 159 183 7,000 -79 Level Indianapolis Center
Thu 08:24:17 AM 40.2661 -83.0358 175° South 160 184 6,900  Descending Indianapolis Center
Thu 08:25:03 AM 40.2381 -83.0281 168° South 161 185 7,000 98 Climbing Indianapolis Center
Thu 08:25:18 AM 40.2186 -83.0250 173° South 160 184 7,000 -98 Level Indianapolis Center
Thu 08:26:04 AM 40.1958 -83.0169 165° South 154 177 6,900  Descending Indianapolis Center
Thu 08:26:19 AM 40.1794 -83.0178 182° South 142 163 7,000 98 Climbing Indianapolis Center
Thu 08:27:05 AM 40.1492 -83.0178 180° South 143 165 7,000  Level Indianapolis Center
Thu 08:27:20 AM 40.1397 -83.0186 184° South 142 163 7,000 -97 Level Indianapolis Center
Thu 08:28:07 AM 40.1089 -83.0206 183° South 142 163 6,900 -56 Descending Indianapolis Center
Thu 08:29:08 AM 40.0703 -83.0222 182° South 138 159 6,900  Level Indianapolis Center
Thu 08:30:16 AM 40.0261 -83.0244 182° South 137 158 6,900 49 Level Indianapolis Center
Thu 08:31:10 AM 39.9933 -83.0244 180° South 136 157 7,000 -209 Climbing Indianapolis Center
Thu 08:32:11 AM 39.9539 -83.0269 183° South 141 162 6,500 -732 Descending Indianapolis Center
Thu 08:33:13 AM 39.9128 -82.9953 149° Southeast 177 204 5,500 -1,659 Descending Indianapolis Center
Thu 08:34:14 AM 39.8764 -82.9394 130° Southeast 194 223 3,100 -1,624 Descending Indianapolis Center
Thu 08:35:26 AM 39.8444 -82.8975 135° Southeast 112 129 1,900 -1,082 Descending Indianapolis Center
Thu 08:36:16 AM 39.8275 -82.9108 211° Southwest 132 152 900 -1,200 Descending Indianapolis Center
Thu 08:38:00 AM 39.8138 -82.9278 159° South  Level Estimated

Login

Don't have an account? Register now (free) for customized features, flight alerts, and more!